aviador You're here:

KNBC Decoded Metar

BEAUFORT in SC, USA
Report Time2018-01-17 08:56:00
UTC Time2018-01-17 09:17:29
Flight Rules vfr VFR
WindCalm
Visibility9999 m
Phenomena:N/A
Clouds:N/A
CeilingNone
Temp02°C (ISA -13)
Dew Point02°C (100% RH)
AAT0.3°C
QNH1024 hPa
Density Alt-1,814 ft
Elevation37 ft
Report Wrong Elevation
Raw Report
KNBC 170856Z AUTO 00000KT 10SM CLR 02/02 A3025 RMK AO2 SLP244
T00220017 56013 $=

Extra information for KNBC:More info

Metar Taf Metar & Taf Last 4 Metars F.Rules Stats Wind Profile Meteogram Temp Stats Airport Information Weather charts Add Link Nearby VenuesMetar ALERT Operation Metar Decoded Social comments

AIRNAV info for KNBC